createdAt,value
2018-12-02T00:00:28.214Z,4.80
2018-12-02T00:02:56.402Z,3.10
2018-12-02T00:05:25.087Z,5.77
2018-12-02T00:07:53.557Z,4.53
2018-12-02T00:10:22.080Z,2.57
2018-12-02T00:12:51.096Z,3.30
2018-12-02T00:15:20.879Z,5.40
2018-12-02T00:17:49.830Z,6.73
2018-12-02T00:20:18.130Z,3.63
2018-12-02T00:22:46.504Z,5.43
2018-12-02T00:25:16.588Z,4.73
2018-12-02T00:27:45.693Z,4.40
2018-12-02T00:30:19.286Z,2.33
2018-12-02T00:32:47.520Z,2.23
2018-12-02T00:35:16.493Z,4.00
2018-12-02T00:37:45.339Z,3.50
2018-12-02T00:40:13.976Z,3.17
2018-12-02T00:42:42.930Z,3.80
2018-12-02T00:45:12.841Z,2.87
2018-12-02T00:47:41.369Z,2.83
2018-12-02T00:50:10.235Z,2.63
2018-12-02T00:52:38.560Z,4.30
2018-12-02T00:55:07.944Z,2.27
2018-12-02T00:57:36.266Z,2.27
2018-12-02T01:00:04.934Z,3.53
2018-12-02T01:02:33.214Z,2.60
2018-12-02T01:05:01.404Z,2.30
2018-12-02T01:07:29.577Z,2.10
2018-12-02T01:09:57.839Z,3.53
2018-12-02T01:12:26.014Z,2.63
2018-12-02T01:14:54.240Z,2.60
2018-12-02T01:17:22.435Z,2.57
2018-12-02T01:19:50.706Z,2.03
2018-12-02T01:22:19.241Z,3.47
2018-12-02T01:24:47.430Z,2.40
2018-12-02T01:27:15.590Z,4.23
2018-12-02T01:29:43.773Z,3.37
2018-12-02T01:32:11.944Z,1.90
2018-12-02T01:34:40.483Z,2.20
2018-12-02T01:37:08.738Z,4.90
2018-12-02T01:39:36.981Z,2.80
2018-12-02T01:42:05.194Z,3.83
2018-12-02T01:44:33.571Z,6.50
2018-12-02T01:47:01.720Z,3.70
2018-12-02T01:49:29.974Z,1.97
2018-12-02T01:51:58.182Z,2.63
2018-12-02T01:54:26.781Z,2.70
2018-12-02T01:56:54.932Z,3.00
2018-12-02T01:59:23.221Z,2.97
2018-12-02T02:01:51.481Z,3.03
2018-12-02T02:04:20.227Z,2.07
2018-12-02T02:06:48.492Z,2.17
2018-12-02T02:09:16.819Z,3.20
2018-12-02T02:11:45.140Z,2.97
2018-12-02T02:14:13.368Z,1.60
2018-12-02T02:16:42.438Z,2.50
2018-12-02T02:19:10.744Z,1.77
2018-12-02T02:21:39.050Z,2.87
2018-12-02T02:24:07.368Z,1.57
2018-12-02T02:26:35.588Z,1.80
2018-12-02T02:29:03.799Z,2.80
2018-12-02T02:31:32.057Z,2.93
2018-12-02T02:34:00.284Z,3.43
2018-12-02T02:36:28.708Z,3.53
2018-12-02T02:38:57.103Z,2.23
2018-12-02T02:41:25.405Z,1.60
2018-12-02T02:43:54.105Z,1.70
2018-12-02T02:46:22.484Z,1.93
2018-12-02T02:48:50.702Z,3.77
2018-12-02T02:51:18.891Z,2.20
2018-12-02T02:53:47.125Z,1.80
2018-12-02T02:56:15.390Z,2.10
2018-12-02T02:58:43.547Z,1.60
2018-12-02T03:01:11.924Z,3.30
2018-12-02T03:03:40.241Z,2.10
2018-12-02T03:06:08.481Z,1.40
2018-12-02T03:08:36.808Z,2.97
2018-12-02T03:11:05.301Z,2.83
2018-12-02T03:13:33.587Z,2.43
2018-12-02T03:16:01.791Z,2.03
2018-12-02T03:18:30.233Z,2.37
2018-12-02T03:20:58.605Z,2.90
2018-12-02T03:23:26.898Z,2.03
2018-12-02T03:25:55.063Z,2.30
2018-12-02T03:28:23.451Z,2.60
2018-12-02T03:30:51.725Z,1.57
2018-12-02T03:33:19.994Z,1.63
2018-12-02T03:35:48.206Z,2.43
2018-12-02T03:38:16.393Z,1.50
2018-12-02T03:40:44.644Z,1.57
2018-12-02T03:43:12.845Z,1.50
2018-12-02T03:45:41.021Z,1.50
2018-12-02T03:48:09.325Z,2.40
2018-12-02T03:50:37.649Z,1.40
2018-12-02T03:53:05.872Z,2.20
2018-12-02T03:55:34.191Z,1.80
2018-12-02T03:58:02.488Z,1.67
2018-12-02T04:00:30.753Z,2.07
2018-12-02T04:02:58.996Z,1.60
2018-12-02T04:05:27.164Z,1.67
2018-12-02T04:07:55.365Z,1.57
2018-12-02T04:10:24.146Z,1.60
2018-12-02T04:12:52.656Z,2.37
2018-12-02T04:15:24.306Z,1.67
2018-12-02T04:17:52.487Z,2.93
2018-12-02T04:20:21.075Z,2.30
2018-12-02T04:27:43.349Z,1.90
2018-12-02T04:30:13.076Z,1.40
2018-12-02T04:32:41.317Z,2.97
2018-12-02T04:35:11.212Z,1.73
2018-12-02T04:37:39.433Z,2.97
2018-12-02T04:40:08.383Z,1.90
2018-12-02T04:42:36.592Z,2.40
2018-12-02T04:45:05.879Z,2.83
2018-12-02T04:47:34.059Z,1.63
2018-12-02T04:50:02.413Z,2.03
2018-12-02T04:52:30.602Z,3.27
2018-12-02T04:54:58.965Z,1.83
2018-12-02T04:57:27.353Z,1.77
2018-12-02T04:59:55.540Z,1.73
2018-12-02T05:02:23.939Z,3.33
2018-12-02T05:04:52.170Z,1.27
2018-12-02T05:07:20.411Z,1.63
2018-12-02T05:09:48.586Z,1.87
2018-12-02T05:12:16.737Z,1.33
2018-12-02T05:14:44.948Z,1.37
2018-12-02T05:17:13.263Z,1.30
2018-12-02T05:19:41.457Z,1.53
2018-12-02T05:22:09.748Z,1.13
2018-12-02T05:24:38.034Z,1.20
2018-12-02T05:27:06.268Z,1.93
2018-12-02T05:29:34.477Z,1.00
2018-12-02T05:32:02.798Z,1.20
2018-12-02T05:34:31.081Z,1.77
2018-12-02T05:36:59.274Z,0.90
2018-12-02T05:39:27.528Z,1.43
2018-12-02T05:42:01.262Z,1.20
2018-12-02T05:44:30.001Z,1.47
2018-12-02T05:46:58.282Z,1.93
2018-12-02T05:49:26.490Z,1.57
2018-12-02T05:51:54.701Z,1.20
2018-12-02T05:54:22.953Z,2.83
2018-12-02T05:56:51.246Z,1.60
2018-12-02T05:59:19.463Z,1.50
2018-12-02T06:01:47.772Z,1.27
2018-12-02T06:04:15.991Z,1.00
2018-12-02T06:06:44.256Z,2.27
2018-12-02T06:09:12.577Z,1.23
2018-12-02T06:11:43.776Z,0.80
2018-12-02T06:14:09.304Z,0.97
2018-12-02T06:16:37.499Z,1.20
2018-12-02T06:19:05.802Z,1.33
2018-12-02T06:21:33.988Z,0.90
2018-12-02T06:24:02.295Z,1.00
2018-12-02T06:26:30.741Z,1.10
2018-12-02T06:28:59.072Z,1.23
2018-12-02T06:31:27.289Z,1.23
2018-12-02T06:33:55.454Z,1.10
2018-12-02T06:36:23.998Z,0.97
2018-12-02T06:38:52.379Z,1.83
2018-12-02T06:41:20.606Z,0.80
2018-12-02T06:43:48.764Z,1.13
2018-12-02T06:46:16.986Z,0.90
2018-12-02T06:48:45.212Z,1.13
2018-12-02T06:51:13.436Z,1.33
2018-12-02T06:53:41.644Z,0.80
2018-12-02T06:56:15.065Z,0.70
2018-12-02T06:58:48.774Z,1.07
2018-12-02T07:01:27.353Z,1.00
2018-12-02T07:04:00.343Z,0.80
2018-12-02T07:06:28.663Z,0.80
2018-12-02T07:08:56.884Z,1.07
2018-12-02T07:11:25.077Z,0.80
2018-12-02T07:13:53.251Z,1.33
2018-12-02T07:16:21.741Z,0.93
2018-12-02T07:18:51.166Z,0.90
2018-12-02T07:21:23.395Z,1.20
2018-12-02T07:23:52.802Z,1.47
2018-12-02T07:26:21.080Z,1.30
2018-12-02T07:28:49.266Z,1.70
2018-12-02T07:31:17.667Z,0.90
2018-12-02T07:33:46.121Z,1.27
2018-12-02T07:36:14.389Z,1.23
2018-12-02T07:39:49.977Z,0.90
2018-12-02T07:42:18.148Z,1.10
2018-12-02T07:44:46.405Z,1.27
2018-12-02T07:47:14.741Z,1.40
2018-12-02T07:49:42.986Z,2.10
2018-12-02T07:52:11.436Z,1.63
2018-12-02T07:54:39.723Z,2.10
2018-12-02T07:57:08.089Z,1.90
2018-12-02T07:59:36.806Z,2.73
2018-12-02T08:02:05.473Z,2.03
2018-12-02T08:04:33.783Z,2.67
2018-12-02T08:07:01.988Z,1.67
2018-12-02T08:09:30.539Z,1.70
2018-12-02T08:11:58.865Z,1.60
2018-12-02T08:14:27.093Z,1.33
2018-12-02T08:16:55.310Z,2.10
2018-12-02T08:19:23.735Z,1.80
2018-12-02T08:21:52.414Z,2.00
2018-12-02T08:24:20.766Z,1.50
2018-12-02T08:26:49.709Z,1.60
2018-12-02T08:29:17.950Z,1.40
2018-12-02T08:31:46.248Z,1.77
2018-12-02T08:34:14.460Z,4.00
2018-12-02T08:36:42.693Z,1.40
2018-12-02T08:39:11.574Z,1.40
2018-12-02T08:41:39.807Z,1.70
2018-12-02T08:44:08.200Z,1.43
2018-12-02T08:46:36.771Z,1.40
2018-12-02T08:49:05.272Z,1.50
2018-12-02T08:51:33.721Z,1.13
2018-12-02T08:54:02.132Z,1.50
2018-12-02T08:56:31.019Z,1.73
2018-12-02T08:58:59.319Z,1.40
2018-12-02T09:01:27.579Z,1.53
2018-12-02T09:03:55.799Z,1.40
2018-12-02T09:06:24.122Z,1.73
2018-12-02T09:08:52.413Z,1.50
2018-12-02T09:11:20.818Z,1.27
2018-12-02T09:13:49.210Z,2.20
2018-12-02T09:16:17.727Z,1.47
2018-12-02T09:18:46.315Z,1.47
2018-12-02T09:21:14.524Z,2.53
2018-12-02T09:23:47.422Z,1.80
2018-12-02T09:26:11.180Z,1.70
2018-12-02T09:28:39.713Z,3.47
2018-12-02T09:31:08.201Z,1.80
2018-12-02T09:33:36.634Z,1.83
2018-12-02T09:36:05.132Z,3.13
2018-12-02T09:38:33.534Z,2.30
2018-12-02T09:41:02.030Z,2.00
2018-12-02T09:43:30.302Z,2.47
2018-12-02T09:45:58.620Z,2.10
2018-12-02T09:48:26.987Z,3.37
2018-12-02T09:50:55.199Z,2.73
2018-12-02T09:53:23.931Z,2.70
2018-12-02T09:55:52.704Z,2.80
2018-12-02T09:58:25.473Z,3.37
2018-12-02T10:00:54.602Z,3.30
2018-12-02T10:03:22.821Z,3.67
2018-12-02T10:05:51.130Z,3.90
2018-12-02T10:08:19.624Z,3.93
2018-12-02T10:10:48.085Z,5.10
2018-12-02T10:13:17.536Z,4.70
2018-12-02T10:15:46.346Z,4.80
2018-12-02T10:18:14.746Z,5.00
2018-12-02T10:20:43.542Z,5.57
2018-12-02T10:23:12.122Z,4.73
2018-12-02T10:25:40.940Z,5.90
2018-12-02T10:28:09.712Z,5.17
2018-12-02T10:30:38.811Z,5.00
2018-12-02T10:33:07.246Z,5.00
2018-12-02T10:35:35.673Z,5.43
2018-12-02T10:38:04.002Z,5.53
2018-12-02T10:40:32.796Z,5.43
2018-12-02T10:43:01.031Z,6.10
2018-12-02T10:45:29.602Z,5.77
2018-12-02T10:47:59.567Z,5.63
2018-12-02T10:50:28.505Z,6.10
2018-12-02T10:52:57.743Z,5.67
2018-12-02T10:55:46.486Z,5.87
2018-12-02T10:58:18.612Z,5.80
2018-12-02T11:00:52.386Z,6.00
2018-12-02T11:03:20.885Z,5.80
2018-12-02T11:05:49.215Z,5.27
2018-12-02T11:08:17.598Z,5.17
2018-12-02T11:10:45.979Z,5.70
2018-12-02T11:13:14.541Z,5.13
2018-12-02T11:15:43.140Z,5.70
2018-12-02T11:18:12.141Z,5.00
2018-12-02T11:20:40.736Z,5.17
2018-12-02T11:23:09.384Z,4.70
2018-12-02T11:25:37.665Z,5.30
2018-12-02T11:28:06.708Z,4.73
2018-12-02T11:30:35.150Z,5.17
2018-12-02T11:33:03.568Z,4.80
2018-12-02T11:35:31.942Z,5.13
2018-12-02T11:38:00.341Z,5.13
2018-12-02T11:40:28.554Z,5.20
2018-12-02T11:42:57.063Z,4.90
2018-12-02T11:45:25.420Z,5.90
2018-12-02T11:47:54.269Z,5.53
2018-12-02T11:50:22.901Z,5.90
2018-12-02T11:52:51.268Z,6.13
2018-12-02T11:55:20.211Z,5.73
2018-12-02T11:57:48.466Z,6.40
2018-12-02T12:00:24.043Z,6.27
2018-12-02T12:02:52.908Z,6.43
2018-12-02T12:05:21.209Z,6.43
2018-12-02T12:07:49.776Z,6.37
2018-12-02T12:10:18.571Z,5.70
2018-12-02T12:12:47.509Z,6.10
2018-12-02T12:15:16.405Z,6.70
2018-12-02T12:17:45.151Z,6.27
2018-12-02T12:20:15.345Z,6.70
2018-12-02T12:22:43.817Z,7.10
2018-12-02T12:25:12.136Z,6.87
2018-12-02T12:27:40.771Z,6.80
2018-12-02T12:30:11.946Z,7.43
2018-12-02T12:32:40.518Z,6.43
2018-12-02T12:35:09.837Z,6.80
2018-12-02T12:37:38.554Z,7.90
2018-12-02T12:40:09.505Z,6.43
2018-12-02T12:42:38.133Z,6.20
2018-12-02T12:45:08.206Z,6.70
2018-12-02T12:47:36.669Z,6.50
2018-12-02T12:50:05.396Z,6.80
2018-12-02T12:52:33.879Z,7.50
2018-12-02T12:55:02.148Z,7.20
2018-12-02T12:57:30.389Z,7.23
2018-12-02T12:59:58.784Z,7.30
2018-12-02T13:02:27.433Z,7.37
2018-12-02T13:04:55.828Z,7.57
2018-12-02T13:07:24.101Z,6.70
2018-12-02T13:09:52.416Z,7.60
2018-12-02T13:12:20.753Z,7.60
2018-12-02T13:14:49.437Z,8.13
2018-12-02T13:17:18.124Z,8.07
2018-12-02T13:19:46.561Z,7.90
2018-12-02T13:22:14.861Z,8.23
2018-12-02T13:24:43.264Z,7.07
2018-12-02T13:27:11.511Z,6.20
2018-12-02T13:29:39.758Z,7.37
2018-12-02T13:32:07.960Z,5.83
2018-12-02T13:34:36.279Z,5.07
2018-12-02T13:37:04.858Z,5.00
2018-12-02T13:39:33.114Z,4.13
2018-12-02T13:42:01.509Z,4.33
2018-12-02T13:44:29.741Z,3.90
2018-12-02T13:46:58.557Z,3.50
2018-12-02T13:49:27.156Z,3.87
2018-12-02T13:51:55.498Z,3.90
2018-12-02T13:54:29.554Z,3.77
2018-12-02T13:56:58.017Z,4.03
2018-12-02T13:59:26.295Z,3.90
2018-12-02T14:01:54.666Z,3.93
2018-12-02T14:04:23.132Z,4.97
2018-12-02T14:06:51.573Z,4.73
2018-12-02T14:09:19.894Z,5.17
2018-12-02T14:11:48.230Z,6.07
2018-12-02T14:14:16.759Z,4.50
2018-12-02T14:16:46.625Z,4.37
2018-12-02T14:19:15.207Z,4.70
2018-12-02T14:21:43.630Z,4.37
2018-12-02T14:24:11.998Z,5.37
2018-12-02T14:26:42.534Z,4.70
2018-12-02T14:29:13.195Z,4.30
2018-12-02T14:31:42.846Z,4.87
2018-12-02T14:34:11.260Z,4.83
2018-12-02T14:36:39.515Z,3.90
2018-12-02T14:39:09.838Z,3.80
2018-12-02T14:41:38.375Z,4.20
2018-12-02T14:44:07.342Z,4.37
2018-12-02T14:46:36.030Z,4.40
2018-12-02T14:49:04.939Z,5.27
2018-12-02T14:51:33.443Z,4.13
2018-12-02T14:54:01.930Z,4.43
2018-12-02T14:56:30.256Z,5.27
2018-12-02T14:58:58.486Z,4.63
2018-12-02T15:01:26.776Z,4.43
2018-12-02T15:03:55.081Z,4.43
2018-12-02T15:06:23.503Z,5.13
2018-12-02T15:08:51.786Z,5.50
2018-12-02T15:11:20.019Z,4.87
2018-12-02T15:13:48.476Z,5.47
2018-12-02T15:16:16.835Z,4.07
2018-12-02T15:18:45.213Z,4.63
2018-12-02T15:21:13.416Z,4.03
2018-12-02T15:23:41.637Z,4.27
2018-12-02T15:26:10.023Z,3.80
2018-12-02T15:28:38.315Z,3.07
2018-12-02T15:31:06.710Z,2.77
2018-12-02T15:33:35.041Z,2.57
2018-12-02T15:36:03.659Z,4.87
2018-12-02T15:38:31.925Z,3.17
2018-12-02T15:41:00.512Z,2.60
2018-12-02T15:43:28.923Z,3.00
2018-12-02T15:45:57.180Z,2.57
2018-12-02T15:48:25.539Z,3.63
2018-12-02T15:50:53.882Z,7.00
2018-12-02T15:53:22.489Z,3.67
2018-12-02T15:55:50.773Z,2.90
2018-12-02T15:58:19.323Z,3.60
2018-12-02T16:00:47.901Z,3.47
2018-12-02T16:03:16.307Z,3.27
2018-12-02T16:05:44.543Z,5.17
2018-12-02T16:08:12.742Z,4.90
2018-12-02T16:10:41.017Z,4.27
2018-12-02T16:13:10.208Z,4.77
2018-12-02T16:15:38.504Z,5.20
2018-12-02T16:18:08.847Z,6.90
2018-12-02T16:20:41.611Z,3.90
2018-12-02T16:23:10.019Z,3.93
2018-12-02T16:25:39.004Z,4.43
2018-12-02T16:28:07.270Z,4.60
2018-12-02T16:30:35.492Z,4.77
2018-12-02T16:33:03.814Z,5.53
2018-12-02T16:35:32.106Z,7.03
2018-12-02T16:38:00.520Z,6.77
2018-12-02T16:40:29.062Z,5.20
2018-12-02T16:42:57.778Z,6.07
2018-12-02T16:45:26.040Z,6.87
2018-12-02T16:47:55.072Z,5.77
2018-12-02T16:50:24.251Z,7.83
2018-12-02T16:52:53.094Z,5.03
2018-12-02T16:55:22.673Z,7.90
2018-12-02T16:57:54.338Z,5.30
2018-12-02T17:00:24.710Z,5.77
2018-12-02T17:02:53.062Z,4.93
2018-12-02T17:05:21.697Z,4.73
2018-12-02T17:07:49.993Z,4.33
2018-12-02T17:10:18.423Z,4.97
2018-12-02T17:12:46.865Z,5.10
2018-12-02T17:15:15.370Z,5.13
2018-12-02T17:17:43.725Z,5.17
2018-12-02T17:20:13.848Z,6.03
2018-12-02T17:22:42.671Z,5.07
2018-12-02T17:25:11.683Z,4.63
2018-12-02T17:27:40.198Z,5.90
2018-12-02T17:30:31.664Z,4.83
2018-12-02T17:33:00.322Z,5.07
2018-12-02T17:35:28.694Z,4.90
2018-12-02T17:37:57.041Z,5.33
2018-12-02T17:40:25.574Z,5.03
2018-12-02T17:42:54.024Z,4.67
2018-12-02T17:45:22.487Z,4.80
2018-12-02T17:47:50.885Z,5.10
2018-12-02T17:50:19.474Z,6.53
2018-12-02T17:52:48.547Z,5.93
2018-12-02T17:55:16.981Z,7.37
2018-12-02T17:57:45.678Z,5.63
2018-12-02T18:00:22.099Z,6.23
2018-12-02T18:02:50.499Z,7.10
2018-12-02T18:05:20.054Z,8.53
2018-12-02T18:07:48.600Z,9.43
2018-12-02T18:10:16.893Z,8.03
2018-12-02T18:12:45.138Z,7.50
2018-12-02T18:15:14.107Z,7.23
2018-12-02T18:17:42.527Z,7.17
2018-12-02T18:20:13.590Z,8.40
2018-12-02T18:22:42.085Z,9.50
2018-12-02T18:25:11.117Z,8.40
2018-12-02T18:27:39.412Z,9.37
2018-12-02T18:30:41.293Z,7.80
2018-12-02T18:33:09.680Z,9.77
2018-12-02T18:35:42.861Z,10.07
2018-12-02T18:38:12.165Z,10.80
2018-12-02T18:40:41.845Z,9.37
2018-12-02T18:43:10.607Z,12.97
2018-12-02T18:45:39.203Z,8.93
2018-12-02T18:48:07.719Z,9.93
2018-12-02T18:50:35.938Z,8.53
2018-12-02T18:53:04.484Z,11.53
2018-12-02T18:55:33.170Z,12.60
2018-12-02T18:58:01.997Z,10.67
2018-12-02T19:00:35.858Z,9.30
2018-12-02T19:03:04.143Z,10.10
2018-12-02T19:05:33.021Z,9.33
2018-12-02T19:08:01.512Z,10.77
2018-12-02T19:10:30.341Z,9.77
2018-12-02T19:12:58.557Z,9.20
2018-12-02T19:15:26.999Z,9.40
2018-12-02T19:17:55.231Z,8.30
2018-12-02T19:20:25.534Z,10.03
2018-12-02T19:22:54.755Z,11.63
2018-12-02T19:25:23.973Z,10.60
2018-12-02T19:27:52.503Z,9.40
2018-12-02T19:30:20.898Z,10.37
2018-12-02T19:32:49.475Z,6.90
2018-12-02T19:35:26.479Z,8.33
2018-12-02T19:37:55.637Z,10.13
2018-12-02T19:40:24.771Z,9.30
2018-12-02T19:42:53.662Z,6.40
2018-12-02T19:45:22.243Z,7.07
2018-12-02T19:47:50.870Z,7.67
2018-12-02T19:50:20.038Z,8.07
2018-12-02T19:52:49.268Z,8.57
2018-12-02T19:55:17.978Z,8.70
2018-12-02T19:57:47.987Z,8.43
2018-12-02T20:00:23.277Z,8.37
2018-12-02T20:02:51.646Z,9.23
2018-12-02T20:05:20.156Z,8.47
2018-12-02T20:07:50.689Z,7.87
2018-12-02T20:10:20.188Z,9.50
2018-12-02T20:12:48.925Z,8.60
2018-12-02T20:15:17.730Z,9.90
2018-12-02T20:17:46.856Z,11.63
2018-12-02T20:20:21.283Z,15.20
2018-12-02T20:22:49.657Z,11.07
2018-12-02T20:25:18.584Z,11.17
2018-12-02T20:27:47.071Z,14.37
2018-12-02T20:30:16.286Z,12.63
2018-12-02T20:32:44.570Z,12.90
2018-12-02T20:35:13.003Z,12.03
2018-12-02T20:37:41.689Z,11.10
2018-12-02T20:40:11.114Z,12.80
2018-12-02T20:42:39.575Z,11.70
2018-12-02T20:45:08.708Z,10.73
2018-12-02T20:47:37.089Z,14.23
2018-12-02T20:50:06.902Z,16.40
2018-12-02T20:52:35.442Z,12.67
2018-12-02T20:55:04.562Z,13.00
2018-12-02T20:57:33.320Z,11.00
2018-12-02T21:00:01.981Z,10.57
2018-12-02T21:02:30.688Z,12.13
2018-12-02T21:04:59.485Z,11.53
2018-12-02T21:07:27.736Z,9.97
2018-12-02T21:09:56.234Z,9.40
2018-12-02T21:12:24.890Z,12.57
2018-12-02T21:14:53.676Z,10.37
2018-12-02T21:17:22.009Z,16.63
2018-12-02T21:19:50.431Z,14.13
2018-12-02T21:22:18.979Z,10.30
2018-12-02T21:24:47.424Z,11.40
2018-12-02T21:27:15.783Z,9.57
2018-12-02T21:29:44.116Z,11.53
2018-12-02T21:32:12.953Z,11.90
2018-12-02T21:34:41.420Z,11.60
2018-12-02T21:37:09.927Z,12.87
2018-12-02T21:39:38.224Z,12.53
2018-12-02T21:42:06.786Z,11.50
2018-12-02T21:44:35.269Z,11.93
2018-12-02T21:47:03.654Z,11.17
2018-12-02T21:49:32.073Z,11.37
2018-12-02T21:52:00.456Z,12.93
2018-12-02T21:54:29.113Z,12.73
2018-12-02T21:56:57.579Z,11.90
2018-12-02T21:59:25.958Z,14.60
2018-12-02T22:02:21.851Z,15.03
2018-12-02T22:04:50.313Z,13.23
2018-12-02T22:07:18.655Z,13.47
2018-12-02T22:09:47.186Z,13.83
2018-12-02T22:12:15.452Z,14.57
2018-12-02T22:14:43.829Z,11.87
2018-12-02T22:17:12.130Z,11.93
2018-12-02T22:19:40.584Z,12.10
2018-12-02T22:22:08.889Z,10.63
2018-12-02T22:24:37.151Z,12.57
2018-12-02T22:27:05.980Z,11.33
2018-12-02T22:29:34.429Z,15.13
2018-12-02T22:32:03.629Z,11.77
2018-12-02T22:34:31.860Z,13.83
2018-12-02T22:37:00.222Z,11.60
2018-12-02T22:39:28.597Z,11.10
2018-12-02T22:41:56.978Z,12.90
2018-12-02T22:44:31.361Z,10.73
2018-12-02T22:46:54.597Z,11.43
2018-12-02T22:49:23.051Z,13.40
2018-12-02T22:51:51.337Z,14.07
2018-12-02T22:54:19.803Z,12.17
2018-12-02T22:56:48.238Z,12.47
2018-12-02T22:59:16.593Z,14.47
2018-12-02T23:01:50.165Z,12.87
2018-12-02T23:04:18.435Z,12.30
2018-12-02T23:06:46.738Z,12.90
2018-12-02T23:09:15.289Z,13.00
2018-12-02T23:11:43.621Z,16.27
2018-12-02T23:14:12.220Z,13.30
2018-12-02T23:16:40.703Z,13.83
2018-12-02T23:19:09.161Z,14.20
2018-12-02T23:21:37.659Z,14.07
2018-12-02T23:24:05.983Z,15.17
2018-12-02T23:26:34.263Z,14.43
2018-12-02T23:29:08.369Z,13.43
2018-12-02T23:31:31.065Z,14.60
2018-12-02T23:33:59.709Z,15.20
2018-12-02T23:36:27.732Z,13.43
2018-12-02T23:38:56.007Z,13.53
2018-12-02T23:41:24.263Z,13.67
2018-12-02T23:43:52.820Z,15.70
2018-12-02T23:46:21.290Z,12.90
2018-12-02T23:48:49.719Z,13.50
2018-12-02T23:51:18.250Z,12.97
2018-12-02T23:53:46.727Z,13.27
2018-12-02T23:56:15.094Z,14.13
2018-12-02T23:58:43.386Z,13.80
